sensor_id;sensor_type;location;lat;lon;timestamp;P1;durP1;ratioP1;P2;durP2;ratioP2
20637;SDS011;10478;49.004;8.470;2023-04-25T00:02:00;4.95;;;2.25;;
20637;SDS011;10478;49.004;8.470;2023-04-25T00:04:25;4.63;;;2.83;;
20637;SDS011;10478;49.004;8.470;2023-04-25T00:06:52;3.22;;;2.28;;
20637;SDS011;10478;49.004;8.470;2023-04-25T00:09:17;3.58;;;2.42;;
20637;SDS011;10478;49.004;8.470;2023-04-25T00:11:43;6.85;;;2.40;;
20637;SDS011;10478;49.004;8.470;2023-04-25T00:14:08;3.35;;;2.30;;
20637;SDS011;10478;49.004;8.470;2023-04-25T00:16:34;6.57;;;3.03;;
20637;SDS011;10478;49.004;8.470;2023-04-25T00:19:00;4.63;;;2.55;;
20637;SDS011;10478;49.004;8.470;2023-04-25T00:21:28;4.00;;;2.38;;
20637;SDS011;10478;49.004;8.470;2023-04-25T00:23:53;3.90;;;2.28;;
20637;SDS011;10478;49.004;8.470;2023-04-25T00:26:19;3.78;;;2.28;;
20637;SDS011;10478;49.004;8.470;2023-04-25T00:28:46;3.58;;;2.28;;
20637;SDS011;10478;49.004;8.470;2023-04-25T00:31:11;4.07;;;2.10;;
20637;SDS011;10478;49.004;8.470;2023-04-25T00:33:37;3.85;;;2.58;;
20637;SDS011;10478;49.004;8.470;2023-04-25T00:36:02;5.15;;;2.53;;
20637;SDS011;10478;49.004;8.470;2023-04-25T00:38:27;4.35;;;2.40;;
20637;SDS011;10478;49.004;8.470;2023-04-25T00:40:53;4.63;;;2.67;;
20637;SDS011;10478;49.004;8.470;2023-04-25T00:43:18;4.30;;;2.25;;
20637;SDS011;10478;49.004;8.470;2023-04-25T00:45:44;3.67;;;2.70;;
20637;SDS011;10478;49.004;8.470;2023-04-25T00:48:12;6.80;;;2.20;;
20637;SDS011;10478;49.004;8.470;2023-04-25T00:50:39;5.43;;;2.13;;
20637;SDS011;10478;49.004;8.470;2023-04-25T00:53:05;4.38;;;2.53;;
20637;SDS011;10478;49.004;8.470;2023-04-25T00:55:30;9.35;;;3.15;;
20637;SDS011;10478;49.004;8.470;2023-04-25T00:57:56;4.00;;;2.30;;
20637;SDS011;10478;49.004;8.470;2023-04-25T01:00:22;3.08;;;2.03;;
20637;SDS011;10478;49.004;8.470;2023-04-25T01:02:47;4.05;;;2.47;;
20637;SDS011;10478;49.004;8.470;2023-04-25T01:05:13;3.22;;;2.33;;
20637;SDS011;10478;49.004;8.470;2023-04-25T01:07:39;3.22;;;2.22;;
20637;SDS011;10478;49.004;8.470;2023-04-25T01:10:04;2.80;;;1.75;;
20637;SDS011;10478;49.004;8.470;2023-04-25T01:12:31;2.88;;;1.85;;
20637;SDS011;10478;49.004;8.470;2023-04-25T01:14:56;5.45;;;2.00;;
20637;SDS011;10478;49.004;8.470;2023-04-25T01:17:22;2.78;;;2.05;;
20637;SDS011;10478;49.004;8.470;2023-04-25T01:19:47;4.07;;;1.98;;
20637;SDS011;10478;49.004;8.470;2023-04-25T01:22:14;3.35;;;2.20;;
20637;SDS011;10478;49.004;8.470;2023-04-25T01:24:39;2.85;;;2.15;;
20637;SDS011;10478;49.004;8.470;2023-04-25T01:27:05;2.95;;;1.85;;
20637;SDS011;10478;49.004;8.470;2023-04-25T01:29:30;3.45;;;1.98;;
20637;SDS011;10478;49.004;8.470;2023-04-25T01:31:58;3.30;;;2.20;;
20637;SDS011;10478;49.004;8.470;2023-04-25T01:34:24;2.47;;;1.70;;
20637;SDS011;10478;49.004;8.470;2023-04-25T01:36:50;3.55;;;1.90;;
20637;SDS011;10478;49.004;8.470;2023-04-25T01:39:16;2.53;;;2.05;;
20637;SDS011;10478;49.004;8.470;2023-04-25T01:41:42;3.97;;;2.47;;
20637;SDS011;10478;49.004;8.470;2023-04-25T01:44:07;3.45;;;2.15;;
20637;SDS011;10478;49.004;8.470;2023-04-25T01:46:33;3.25;;;1.85;;
20637;SDS011;10478;49.004;8.470;2023-04-25T01:48:58;3.15;;;2.15;;
20637;SDS011;10478;49.004;8.470;2023-04-25T01:51:24;2.75;;;1.90;;
20637;SDS011;10478;49.004;8.470;2023-04-25T01:53:49;2.22;;;1.95;;
20637;SDS011;10478;49.004;8.470;2023-04-25T01:56:14;3.58;;;2.28;;
20637;SDS011;10478;49.004;8.470;2023-04-25T01:58:40;4.13;;;2.30;;
20637;SDS011;10478;49.004;8.470;2023-04-25T02:01:05;5.40;;;2.63;;
20637;SDS011;10478;49.004;8.470;2023-04-25T02:03:31;2.72;;;2.00;;
20637;SDS011;10478;49.004;8.470;2023-04-25T02:05:56;3.92;;;1.83;;
20637;SDS011;10478;49.004;8.470;2023-04-25T02:08:22;3.75;;;2.20;;
20637;SDS011;10478;49.004;8.470;2023-04-25T02:10:47;4.63;;;2.65;;
20637;SDS011;10478;49.004;8.470;2023-04-25T02:13:12;3.80;;;2.20;;
20637;SDS011;10478;49.004;8.470;2023-04-25T02:15:37;3.72;;;2.33;;
20637;SDS011;10478;49.004;8.470;2023-04-25T02:18:03;3.47;;;1.83;;
20637;SDS011;10478;49.004;8.470;2023-04-25T02:20:29;8.40;;;2.85;;
20637;SDS011;10478;49.004;8.470;2023-04-25T02:22:55;4.38;;;2.70;;
20637;SDS011;10478;49.004;8.470;2023-04-25T02:25:20;3.30;;;2.08;;
20637;SDS011;10478;49.004;8.470;2023-04-25T02:27:46;3.65;;;2.33;;
20637;SDS011;10478;49.004;8.470;2023-04-25T02:30:12;4.15;;;2.35;;
20637;SDS011;10478;49.004;8.470;2023-04-25T02:32:38;7.13;;;2.60;;
20637;SDS011;10478;49.004;8.470;2023-04-25T02:35:04;5.07;;;2.30;;
20637;SDS011;10478;49.004;8.470;2023-04-25T02:37:30;3.63;;;2.42;;
20637;SDS011;10478;49.004;8.470;2023-04-25T02:39:56;3.08;;;2.15;;
20637;SDS011;10478;49.004;8.470;2023-04-25T02:42:21;4.97;;;2.22;;
20637;SDS011;10478;49.004;8.470;2023-04-25T02:44:46;4.85;;;2.78;;
20637;SDS011;10478;49.004;8.470;2023-04-25T02:47:12;5.50;;;2.17;;
20637;SDS011;10478;49.004;8.470;2023-04-25T02:49:37;3.72;;;2.65;;
20637;SDS011;10478;49.004;8.470;2023-04-25T02:52:02;3.47;;;2.42;;
20637;SDS011;10478;49.004;8.470;2023-04-25T02:54:28;2.72;;;2.10;;
20637;SDS011;10478;49.004;8.470;2023-04-25T02:56:53;3.60;;;2.65;;
20637;SDS011;10478;49.004;8.470;2023-04-25T02:59:18;4.53;;;2.90;;
20637;SDS011;10478;49.004;8.470;2023-04-25T03:01:44;4.53;;;2.85;;
20637;SDS011;10478;49.004;8.470;2023-04-25T03:04:10;8.10;;;2.42;;
20637;SDS011;10478;49.004;8.470;2023-04-25T03:06:35;3.90;;;2.13;;
20637;SDS011;10478;49.004;8.470;2023-04-25T03:09:00;3.03;;;2.25;;
20637;SDS011;10478;49.004;8.470;2023-04-25T03:11:26;4.50;;;2.55;;
20637;SDS011;10478;49.004;8.470;2023-04-25T03:13:51;4.07;;;2.33;;
20637;SDS011;10478;49.004;8.470;2023-04-25T03:26:24;4.15;;;1.88;;
20637;SDS011;10478;49.004;8.470;2023-04-25T03:29:30;3.58;;;2.50;;
20637;SDS011;10478;49.004;8.470;2023-04-25T03:31:57;4.88;;;3.03;;
20637;SDS011;10478;49.004;8.470;2023-04-25T03:34:26;6.38;;;2.25;;
20637;SDS011;10478;49.004;8.470;2023-04-25T03:36:51;4.38;;;2.85;;
20637;SDS011;10478;49.004;8.470;2023-04-25T03:39:17;4.05;;;2.45;;
20637;SDS011;10478;49.004;8.470;2023-04-25T03:41:42;4.03;;;2.30;;
20637;SDS011;10478;49.004;8.470;2023-04-25T03:44:08;4.95;;;2.65;;
20637;SDS011;10478;49.004;8.470;2023-04-25T03:46:33;4.10;;;2.60;;
20637;SDS011;10478;49.004;8.470;2023-04-25T03:48:58;3.50;;;2.70;;
20637;SDS011;10478;49.004;8.470;2023-04-25T03:51:24;3.95;;;2.53;;
20637;SDS011;10478;49.004;8.470;2023-04-25T03:53:50;4.35;;;2.85;;
20637;SDS011;10478;49.004;8.470;2023-04-25T03:56:15;4.80;;;2.58;;
20637;SDS011;10478;49.004;8.470;2023-04-25T03:58:40;4.03;;;2.78;;
20637;SDS011;10478;49.004;8.470;2023-04-25T04:01:06;5.18;;;2.65;;
20637;SDS011;10478;49.004;8.470;2023-04-25T04:03:35;4.78;;;2.80;;
20637;SDS011;10478;49.004;8.470;2023-04-25T04:06:01;3.33;;;2.30;;
20637;SDS011;10478;49.004;8.470;2023-04-25T04:08:28;4.05;;;2.80;;
20637;SDS011;10478;49.004;8.470;2023-04-25T04:10:54;9.45;;;2.53;;
20637;SDS011;10478;49.004;8.470;2023-04-25T04:13:19;4.43;;;2.53;;
20637;SDS011;10478;49.004;8.470;2023-04-25T04:15:45;3.85;;;2.55;;
20637;SDS011;10478;49.004;8.470;2023-04-25T04:18:10;3.90;;;2.83;;
20637;SDS011;10478;49.004;8.470;2023-04-25T04:20:35;6.32;;;3.33;;
20637;SDS011;10478;49.004;8.470;2023-04-25T04:23:01;4.47;;;2.70;;
20637;SDS011;10478;49.004;8.470;2023-04-25T04:25:26;5.05;;;2.92;;
20637;SDS011;10478;49.004;8.470;2023-04-25T04:27:51;4.18;;;2.97;;
20637;SDS011;10478;49.004;8.470;2023-04-25T04:30:21;6.75;;;2.05;;
20637;SDS011;10478;49.004;8.470;2023-04-25T04:32:48;5.45;;;3.42;;
20637;SDS011;10478;49.004;8.470;2023-04-25T04:35:14;6.35;;;3.05;;
20637;SDS011;10478;49.004;8.470;2023-04-25T04:37:39;5.55;;;2.88;;
20637;SDS011;10478;49.004;8.470;2023-04-25T04:40:05;4.43;;;2.75;;
20637;SDS011;10478;49.004;8.470;2023-04-25T04:42:31;22.88;;;11.95;;
20637;SDS011;10478;49.004;8.470;2023-04-25T04:44:57;30.05;;;14.15;;
20637;SDS011;10478;49.004;8.470;2023-04-25T04:47:23;9.73;;;4.85;;
20637;SDS011;10478;49.004;8.470;2023-04-25T04:49:49;11.40;;;5.70;;
20637;SDS011;10478;49.004;8.470;2023-04-25T04:52:14;19.65;;;10.48;;
20637;SDS011;10478;49.004;8.470;2023-04-25T04:54:39;12.20;;;5.90;;
20637;SDS011;10478;49.004;8.470;2023-04-25T04:57:05;7.95;;;3.97;;
20637;SDS011;10478;49.004;8.470;2023-04-25T04:59:30;5.20;;;2.92;;
20637;SDS011;10478;49.004;8.470;2023-04-25T05:01:55;6.15;;;2.67;;
20637;SDS011;10478;49.004;8.470;2023-04-25T05:04:20;3.78;;;2.67;;
20637;SDS011;10478;49.004;8.470;2023-04-25T05:06:46;5.03;;;3.10;;
20637;SDS011;10478;49.004;8.470;2023-04-25T05:09:11;5.50;;;3.05;;
20637;SDS011;10478;49.004;8.470;2023-04-25T05:11:36;5.25;;;2.92;;
20637;SDS011;10478;49.004;8.470;2023-04-25T05:14:02;5.38;;;3.15;;
20637;SDS011;10478;49.004;8.470;2023-04-25T05:16:27;5.28;;;3.00;;
20637;SDS011;10478;49.004;8.470;2023-04-25T05:18:52;4.38;;;2.88;;
20637;SDS011;10478;49.004;8.470;2023-04-25T05:21:18;4.43;;;2.83;;
20637;SDS011;10478;49.004;8.470;2023-04-25T05:23:43;5.55;;;3.17;;
20637;SDS011;10478;49.004;8.470;2023-04-25T05:26:08;7.82;;;3.25;;
20637;SDS011;10478;49.004;8.470;2023-04-25T05:28:39;4.03;;;2.67;;
20637;SDS011;10478;49.004;8.470;2023-04-25T05:31:05;24.73;;;11.35;;
20637;SDS011;10478;49.004;8.470;2023-04-25T05:33:31;6.57;;;4.35;;
20637;SDS011;10478;49.004;8.470;2023-04-25T05:35:57;14.38;;;6.80;;
20637;SDS011;10478;49.004;8.470;2023-04-25T05:38:22;7.22;;;3.13;;
20637;SDS011;10478;49.004;8.470;2023-04-25T05:40:47;6.18;;;3.13;;
20637;SDS011;10478;49.004;8.470;2023-04-25T05:43:12;4.65;;;3.17;;
20637;SDS011;10478;49.004;8.470;2023-04-25T05:45:38;4.93;;;2.85;;
20637;SDS011;10478;49.004;8.470;2023-04-25T05:48:03;6.38;;;3.08;;
20637;SDS011;10478;49.004;8.470;2023-04-25T05:50:28;3.60;;;2.50;;
20637;SDS011;10478;49.004;8.470;2023-04-25T05:52:54;5.15;;;3.05;;
20637;SDS011;10478;49.004;8.470;2023-04-25T05:55:19;5.47;;;3.65;;
20637;SDS011;10478;49.004;8.470;2023-04-25T05:57:44;5.25;;;3.38;;
20637;SDS011;10478;49.004;8.470;2023-04-25T06:00:11;4.80;;;3.30;;
20637;SDS011;10478;49.004;8.470;2023-04-25T06:02:37;4.28;;;3.28;;
20637;SDS011;10478;49.004;8.470;2023-04-25T06:05:02;5.18;;;2.97;;
20637;SDS011;10478;49.004;8.470;2023-04-25T06:07:28;9.65;;;4.70;;
20637;SDS011;10478;49.004;8.470;2023-04-25T06:09:55;8.18;;;4.68;;
20637;SDS011;10478;49.004;8.470;2023-04-25T06:12:20;9.80;;;4.45;;
20637;SDS011;10478;49.004;8.470;2023-04-25T06:14:45;13.75;;;7.35;;
20637;SDS011;10478;49.004;8.470;2023-04-25T06:17:10;6.75;;;4.53;;
20637;SDS011;10478;49.004;8.470;2023-04-25T06:19:36;5.13;;;3.25;;
20637;SDS011;10478;49.004;8.470;2023-04-25T06:22:01;8.35;;;3.58;;
20637;SDS011;10478;49.004;8.470;2023-04-25T06:24:27;6.57;;;3.72;;
20637;SDS011;10478;49.004;8.470;2023-04-25T06:26:52;7.68;;;3.25;;
20637;SDS011;10478;49.004;8.470;2023-04-25T06:29:18;7.53;;;3.15;;
20637;SDS011;10478;49.004;8.470;2023-04-25T06:31:43;5.50;;;3.30;;
20637;SDS011;10478;49.004;8.470;2023-04-25T06:34:08;6.20;;;3.45;;
20637;SDS011;10478;49.004;8.470;2023-04-25T06:36:33;5.22;;;3.20;;
20637;SDS011;10478;49.004;8.470;2023-04-25T06:38:59;5.60;;;3.40;;
20637;SDS011;10478;49.004;8.470;2023-04-25T06:41:24;4.28;;;3.10;;
20637;SDS011;10478;49.004;8.470;2023-04-25T06:43:49;7.00;;;3.47;;
20637;SDS011;10478;49.004;8.470;2023-04-25T06:46:15;5.90;;;3.55;;
20637;SDS011;10478;49.004;8.470;2023-04-25T06:48:40;5.25;;;2.95;;
20637;SDS011;10478;49.004;8.470;2023-04-25T06:51:05;5.35;;;3.42;;
20637;SDS011;10478;49.004;8.470;2023-04-25T06:53:31;8.90;;;4.28;;
20637;SDS011;10478;49.004;8.470;2023-04-25T06:55:56;6.53;;;3.38;;
20637;SDS011;10478;49.004;8.470;2023-04-25T06:58:21;5.63;;;3.53;;
20637;SDS011;10478;49.004;8.470;2023-04-25T07:00:47;7.82;;;4.07;;
20637;SDS011;10478;49.004;8.470;2023-04-25T07:03:12;6.82;;;4.10;;
20637;SDS011;10478;49.004;8.470;2023-04-25T07:05:38;21.58;;;10.90;;
20637;SDS011;10478;49.004;8.470;2023-04-25T07:08:03;10.98;;;6.25;;
20637;SDS011;10478;49.004;8.470;2023-04-25T07:10:28;5.38;;;3.80;;
20637;SDS011;10478;49.004;8.470;2023-04-25T07:12:54;4.50;;;2.58;;
20637;SDS011;10478;49.004;8.470;2023-04-25T07:15:19;4.82;;;3.28;;
20637;SDS011;10478;49.004;8.470;2023-04-25T07:17:45;8.10;;;3.10;;
20637;SDS011;10478;49.004;8.470;2023-04-25T07:20:10;6.25;;;3.47;;
20637;SDS011;10478;49.004;8.470;2023-04-25T07:22:35;7.40;;;3.78;;
20637;SDS011;10478;49.004;8.470;2023-04-25T07:25:01;8.27;;;3.65;;
20637;SDS011;10478;49.004;8.470;2023-04-25T07:27:26;4.20;;;3.25;;
20637;SDS011;10478;49.004;8.470;2023-04-25T07:29:52;5.40;;;3.58;;
20637;SDS011;10478;49.004;8.470;2023-04-25T07:32:18;4.82;;;2.85;;
20637;SDS011;10478;49.004;8.470;2023-04-25T07:34:43;6.15;;;3.28;;
20637;SDS011;10478;49.004;8.470;2023-04-25T07:37:09;6.28;;;3.80;;
20637;SDS011;10478;49.004;8.470;2023-04-25T07:39:35;4.63;;;3.33;;
20637;SDS011;10478;49.004;8.470;2023-04-25T07:42:02;5.88;;;3.63;;
20637;SDS011;10478;49.004;8.470;2023-04-25T07:44:27;5.93;;;3.53;;
20637;SDS011;10478;49.004;8.470;2023-04-25T07:46:52;5.72;;;3.70;;
20637;SDS011;10478;49.004;8.470;2023-04-25T07:49:18;8.88;;;5.85;;
20637;SDS011;10478;49.004;8.470;2023-04-25T07:51:43;13.30;;;7.32;;
20637;SDS011;10478;49.004;8.470;2023-04-25T07:54:09;8.35;;;4.80;;
20637;SDS011;10478;49.004;8.470;2023-04-25T07:56:35;5.10;;;3.78;;
20637;SDS011;10478;49.004;8.470;2023-04-25T07:59:00;6.25;;;3.97;;
20637;SDS011;10478;49.004;8.470;2023-04-25T08:01:25;6.03;;;3.90;;
20637;SDS011;10478;49.004;8.470;2023-04-25T08:03:52;7.13;;;4.38;;
20637;SDS011;10478;49.004;8.470;2023-04-25T08:06:17;13.27;;;6.65;;
20637;SDS011;10478;49.004;8.470;2023-04-25T08:08:42;9.55;;;5.78;;
20637;SDS011;10478;49.004;8.470;2023-04-25T08:11:08;6.22;;;4.47;;
20637;SDS011;10478;49.004;8.470;2023-04-25T08:13:33;7.20;;;4.18;;
20637;SDS011;10478;49.004;8.470;2023-04-25T08:15:59;11.10;;;5.35;;
20637;SDS011;10478;49.004;8.470;2023-04-25T08:18:24;6.63;;;4.82;;
20637;SDS011;10478;49.004;8.470;2023-04-25T08:20:50;7.60;;;5.10;;
20637;SDS011;10478;49.004;8.470;2023-04-25T08:23:15;8.23;;;4.93;;
20637;SDS011;10478;49.004;8.470;2023-04-25T08:25:40;9.30;;;5.72;;
20637;SDS011;10478;49.004;8.470;2023-04-25T08:28:06;8.88;;;5.57;;
20637;SDS011;10478;49.004;8.470;2023-04-25T08:30:31;17.45;;;10.60;;
20637;SDS011;10478;49.004;8.470;2023-04-25T08:32:56;10.88;;;7.68;;
20637;SDS011;10478;49.004;8.470;2023-04-25T08:35:22;14.65;;;9.15;;
20637;SDS011;10478;49.004;8.470;2023-04-25T08:37:48;9.93;;;6.30;;
20637;SDS011;10478;49.004;8.470;2023-04-25T08:40:14;10.93;;;6.38;;
20637;SDS011;10478;49.004;8.470;2023-04-25T08:42:43;11.90;;;7.28;;
20637;SDS011;10478;49.004;8.470;2023-04-25T08:45:09;9.60;;;6.43;;
20637;SDS011;10478;49.004;8.470;2023-04-25T08:47:35;11.80;;;6.93;;
20637;SDS011;10478;49.004;8.470;2023-04-25T08:50:03;11.80;;;6.40;;
20637;SDS011;10478;49.004;8.470;2023-04-25T08:52:39;9.77;;;6.53;;
20637;SDS011;10478;49.004;8.470;2023-04-25T08:55:10;12.02;;;7.28;;
20637;SDS011;10478;49.004;8.470;2023-04-25T08:57:37;13.75;;;8.80;;
20637;SDS011;10478;49.004;8.470;2023-04-25T09:00:03;12.77;;;7.93;;
20637;SDS011;10478;49.004;8.470;2023-04-25T09:02:29;15.18;;;7.88;;
20637;SDS011;10478;49.004;8.470;2023-04-25T09:04:54;10.45;;;6.28;;
20637;SDS011;10478;49.004;8.470;2023-04-25T09:07:21;13.38;;;7.50;;
20637;SDS011;10478;49.004;8.470;2023-04-25T09:09:46;11.57;;;8.60;;
20637;SDS011;10478;49.004;8.470;2023-04-25T09:12:12;15.30;;;9.65;;
20637;SDS011;10478;49.004;8.470;2023-04-25T09:14:38;16.75;;;7.95;;
20637;SDS011;10478;49.004;8.470;2023-04-25T09:17:04;10.65;;;6.28;;
20637;SDS011;10478;49.004;8.470;2023-04-25T09:19:39;12.57;;;7.03;;
20637;SDS011;10478;49.004;8.470;2023-04-25T09:22:05;13.77;;;9.27;;
20637;SDS011;10478;49.004;8.470;2023-04-25T09:27:20;11.00;;;6.60;;
20637;SDS011;10478;49.004;8.470;2023-04-25T09:29:50;14.90;;;7.20;;
20637;SDS011;10478;49.004;8.470;2023-04-25T09:32:22;14.10;;;7.07;;
20637;SDS011;10478;49.004;8.470;2023-04-25T09:34:49;9.77;;;6.78;;
20637;SDS011;10478;49.004;8.470;2023-04-25T09:39:45;9.90;;;6.75;;
20637;SDS011;10478;49.004;8.470;2023-04-25T09:42:12;7.32;;;5.95;;
20637;SDS011;10478;49.004;8.470;2023-04-25T09:44:41;12.73;;;7.55;;
20637;SDS011;10478;49.004;8.470;2023-04-25T09:47:11;10.63;;;4.75;;
20637;SDS011;10478;49.004;8.470;2023-04-25T09:49:38;14.23;;;9.32;;
20637;SDS011;10478;49.004;8.470;2023-04-25T09:52:06;18.10;;;10.45;;
20637;SDS011;10478;49.004;8.470;2023-04-25T09:54:31;15.63;;;8.48;;
20637;SDS011;10478;49.004;8.470;2023-04-25T09:56:56;15.57;;;6.70;;
20637;SDS011;10478;49.004;8.470;2023-04-25T09:59:22;11.15;;;6.28;;
20637;SDS011;10478;49.004;8.470;2023-04-25T10:01:49;11.48;;;6.68;;
20637;SDS011;10478;49.004;8.470;2023-04-25T10:04:16;12.25;;;5.93;;
20637;SDS011;10478;49.004;8.470;2023-04-25T10:06:48;10.85;;;7.07;;
20637;SDS011;10478;49.004;8.470;2023-04-25T10:09:14;10.98;;;6.00;;
20637;SDS011;10478;49.004;8.470;2023-04-25T10:11:40;10.60;;;5.90;;
20637;SDS011;10478;49.004;8.470;2023-04-25T10:14:05;8.88;;;5.93;;
20637;SDS011;10478;49.004;8.470;2023-04-25T10:16:31;8.93;;;6.72;;
20637;SDS011;10478;49.004;8.470;2023-04-25T10:18:57;9.30;;;6.25;;
20637;SDS011;10478;49.004;8.470;2023-04-25T10:21:22;9.55;;;6.22;;
20637;SDS011;10478;49.004;8.470;2023-04-25T10:23:48;10.55;;;6.18;;
20637;SDS011;10478;49.004;8.470;2023-04-25T10:26:14;16.08;;;7.05;;
20637;SDS011;10478;49.004;8.470;2023-04-25T10:28:56;13.02;;;7.18;;
20637;SDS011;10478;49.004;8.470;2023-04-25T10:31:24;14.77;;;7.22;;
20637;SDS011;10478;49.004;8.470;2023-04-25T10:33:49;9.48;;;6.80;;
20637;SDS011;10478;49.004;8.470;2023-04-25T10:36:19;13.18;;;7.43;;
20637;SDS011;10478;49.004;8.470;2023-04-25T10:38:46;10.93;;;7.05;;
20637;SDS011;10478;49.004;8.470;2023-04-25T10:41:13;10.55;;;7.50;;
20637;SDS011;10478;49.004;8.470;2023-04-25T10:48:51;10.18;;;6.25;;
20637;SDS011;10478;49.004;8.470;2023-04-25T10:53:59;11.02;;;6.22;;
20637;SDS011;10478;49.004;8.470;2023-04-25T10:56:27;9.63;;;6.65;;
20637;SDS011;10478;49.004;8.470;2023-04-25T11:04:23;10.23;;;5.70;;
20637;SDS011;10478;49.004;8.470;2023-04-25T11:09:27;11.63;;;6.90;;
20637;SDS011;10478;49.004;8.470;2023-04-25T11:11:56;11.77;;;7.43;;
20637;SDS011;10478;49.004;8.470;2023-04-25T11:14:23;8.65;;;6.15;;
20637;SDS011;10478;49.004;8.470;2023-04-25T11:16:52;19.42;;;7.35;;
20637;SDS011;10478;49.004;8.470;2023-04-25T11:19:21;9.05;;;6.38;;
20637;SDS011;10478;49.004;8.470;2023-04-25T11:21:47;11.05;;;6.93;;
20637;SDS011;10478;49.004;8.470;2023-04-25T11:24:12;14.32;;;8.50;;
20637;SDS011;10478;49.004;8.470;2023-04-25T11:26:38;11.38;;;6.82;;
20637;SDS011;10478;49.004;8.470;2023-04-25T11:29:03;11.95;;;6.85;;
20637;SDS011;10478;49.004;8.470;2023-04-25T11:31:29;11.32;;;6.70;;
20637;SDS011;10478;49.004;8.470;2023-04-25T11:33:56;12.18;;;6.10;;
20637;SDS011;10478;49.004;8.470;2023-04-25T11:36:22;10.80;;;5.72;;
20637;SDS011;10478;49.004;8.470;2023-04-25T11:38:49;10.73;;;6.43;;
20637;SDS011;10478;49.004;8.470;2023-04-25T11:41:15;8.52;;;5.45;;
20637;SDS011;10478;49.004;8.470;2023-04-25T11:43:42;10.23;;;5.75;;
20637;SDS011;10478;49.004;8.470;2023-04-25T11:46:08;11.15;;;5.82;;
20637;SDS011;10478;49.004;8.470;2023-04-25T11:48:37;10.45;;;6.93;;
20637;SDS011;10478;49.004;8.470;2023-04-25T11:51:06;10.93;;;6.25;;
20637;SDS011;10478;49.004;8.470;2023-04-25T11:53:32;12.02;;;6.97;;
20637;SDS011;10478;49.004;8.470;2023-04-25T11:55:57;10.10;;;6.35;;
20637;SDS011;10478;49.004;8.470;2023-04-25T11:58:22;12.32;;;6.28;;
20637;SDS011;10478;49.004;8.470;2023-04-25T12:00:48;12.00;;;6.97;;
20637;SDS011;10478;49.004;8.470;2023-04-25T12:03:13;11.68;;;6.55;;
20637;SDS011;10478;49.004;8.470;2023-04-25T12:05:38;16.35;;;6.82;;
20637;SDS011;10478;49.004;8.470;2023-04-25T12:08:14;12.95;;;6.20;;
20637;SDS011;10478;49.004;8.470;2023-04-25T12:13:20;7.63;;;5.75;;
20637;SDS011;10478;49.004;8.470;2023-04-25T12:15:47;8.98;;;5.53;;
20637;SDS011;10478;49.004;8.470;2023-04-25T12:18:12;10.55;;;6.28;;
20637;SDS011;10478;49.004;8.470;2023-04-25T12:20:38;8.90;;;5.30;;
20637;SDS011;10478;49.004;8.470;2023-04-25T12:23:05;8.90;;;5.63;;
20637;SDS011;10478;49.004;8.470;2023-04-25T12:28:13;9.75;;;5.47;;
20637;SDS011;10478;49.004;8.470;2023-04-25T12:30:55;13.90;;;5.60;;
20637;SDS011;10478;49.004;8.470;2023-04-25T12:33:22;10.38;;;5.13;;
20637;SDS011;10478;49.004;8.470;2023-04-25T12:35:48;14.73;;;5.72;;
20637;SDS011;10478;49.004;8.470;2023-04-25T12:38:20;7.03;;;4.82;;
20637;SDS011;10478;49.004;8.470;2023-04-25T12:40:49;12.80;;;5.65;;
20637;SDS011;10478;49.004;8.470;2023-04-25T12:43:14;8.18;;;5.47;;
20637;SDS011;10478;49.004;8.470;2023-04-25T12:45:40;8.68;;;4.85;;
20637;SDS011;10478;49.004;8.470;2023-04-25T12:48:05;12.50;;;5.80;;
20637;SDS011;10478;49.004;8.470;2023-04-25T12:50:30;7.85;;;5.35;;
20637;SDS011;10478;49.004;8.470;2023-04-25T12:52:56;10.27;;;5.25;;
20637;SDS011;10478;49.004;8.470;2023-04-25T12:55:22;9.27;;;5.15;;
20637;SDS011;10478;49.004;8.470;2023-04-25T12:57:47;10.23;;;5.07;;
20637;SDS011;10478;49.004;8.470;2023-04-25T13:00:13;10.23;;;5.68;;
20637;SDS011;10478;49.004;8.470;2023-04-25T13:02:39;6.63;;;4.78;;
20637;SDS011;10478;49.004;8.470;2023-04-25T13:05:05;9.00;;;5.13;;
20637;SDS011;10478;49.004;8.470;2023-04-25T13:07:31;9.43;;;4.85;;
20637;SDS011;10478;49.004;8.470;2023-04-25T13:09:56;9.48;;;5.47;;
20637;SDS011;10478;49.004;8.470;2023-04-25T13:12:22;7.50;;;4.13;;
20637;SDS011;10478;49.004;8.470;2023-04-25T13:14:47;10.20;;;4.72;;
20637;SDS011;10478;49.004;8.470;2023-04-25T13:17:12;6.70;;;4.50;;
20637;SDS011;10478;49.004;8.470;2023-04-25T13:19:38;6.90;;;3.95;;
20637;SDS011;10478;49.004;8.470;2023-04-25T13:22:04;7.45;;;3.65;;
20637;SDS011;10478;49.004;8.470;2023-04-25T13:24:29;7.40;;;4.65;;
20637;SDS011;10478;49.004;8.470;2023-04-25T13:26:54;10.00;;;4.32;;
20637;SDS011;10478;49.004;8.470;2023-04-25T13:29:20;7.55;;;4.93;;
20637;SDS011;10478;49.004;8.470;2023-04-25T13:31:45;5.25;;;3.80;;
20637;SDS011;10478;49.004;8.470;2023-04-25T13:34:10;6.72;;;4.50;;
20637;SDS011;10478;49.004;8.470;2023-04-25T13:36:37;5.60;;;3.88;;
20637;SDS011;10478;49.004;8.470;2023-04-25T13:39:03;5.93;;;3.70;;
20637;SDS011;10478;49.004;8.470;2023-04-25T13:41:29;5.65;;;3.58;;
20637;SDS011;10478;49.004;8.470;2023-04-25T13:43:55;5.40;;;3.20;;
20637;SDS011;10478;49.004;8.470;2023-04-25T13:46:20;5.25;;;3.45;;
20637;SDS011;10478;49.004;8.470;2023-04-25T13:48:45;4.38;;;2.85;;
20637;SDS011;10478;49.004;8.470;2023-04-25T13:51:13;9.63;;;3.63;;
20637;SDS011;10478;49.004;8.470;2023-04-25T13:53:40;8.88;;;3.05;;
20637;SDS011;10478;49.004;8.470;2023-04-25T13:56:05;10.30;;;5.47;;
20637;SDS011;10478;49.004;8.470;2023-04-25T13:58:31;4.78;;;3.10;;
20637;SDS011;10478;49.004;8.470;2023-04-25T14:00:57;5.55;;;3.67;;
20637;SDS011;10478;49.004;8.470;2023-04-25T14:03:23;6.63;;;3.70;;
20637;SDS011;10478;49.004;8.470;2023-04-25T14:05:48;5.65;;;3.20;;
20637;SDS011;10478;49.004;8.470;2023-04-25T14:08:14;7.80;;;4.00;;
20637;SDS011;10478;49.004;8.470;2023-04-25T14:10:39;8.60;;;4.07;;
20637;SDS011;10478;49.004;8.470;2023-04-25T14:13:05;7.45;;;3.38;;
20637;SDS011;10478;49.004;8.470;2023-04-25T14:15:33;6.97;;;4.22;;
20637;SDS011;10478;49.004;8.470;2023-04-25T14:17:59;12.25;;;6.85;;
20637;SDS011;10478;49.004;8.470;2023-04-25T14:20:25;7.03;;;4.35;;
20637;SDS011;10478;49.004;8.470;2023-04-25T14:22:51;5.57;;;3.78;;
20637;SDS011;10478;49.004;8.470;2023-04-25T14:25:18;7.15;;;4.70;;
20637;SDS011;10478;49.004;8.470;2023-04-25T14:27:44;7.20;;;4.53;;
20637;SDS011;10478;49.004;8.470;2023-04-25T14:30:12;11.10;;;7.18;;
20637;SDS011;10478;49.004;8.470;2023-04-25T14:32:37;11.77;;;6.10;;
20637;SDS011;10478;49.004;8.470;2023-04-25T14:35:03;11.75;;;5.13;;
20637;SDS011;10478;49.004;8.470;2023-04-25T14:37:28;4.57;;;3.42;;
20637;SDS011;10478;49.004;8.470;2023-04-25T14:39:53;7.03;;;4.30;;
20637;SDS011;10478;49.004;8.470;2023-04-25T14:42:19;6.18;;;3.75;;
20637;SDS011;10478;49.004;8.470;2023-04-25T14:44:44;7.72;;;4.20;;
20637;SDS011;10478;49.004;8.470;2023-04-25T14:47:10;8.93;;;4.68;;
20637;SDS011;10478;49.004;8.470;2023-04-25T14:49:35;6.25;;;3.00;;
20637;SDS011;10478;49.004;8.470;2023-04-25T14:52:01;6.85;;;3.75;;
20637;SDS011;10478;49.004;8.470;2023-04-25T14:54:26;5.93;;;3.42;;
20637;SDS011;10478;49.004;8.470;2023-04-25T14:56:52;6.25;;;3.80;;
20637;SDS011;10478;49.004;8.470;2023-04-25T14:59:17;7.22;;;4.28;;
20637;SDS011;10478;49.004;8.470;2023-04-25T15:01:42;7.28;;;3.72;;
20637;SDS011;10478;49.004;8.470;2023-04-25T15:04:08;4.63;;;3.35;;
20637;SDS011;10478;49.004;8.470;2023-04-25T15:06:35;7.95;;;4.35;;
20637;SDS011;10478;49.004;8.470;2023-04-25T15:09:01;4.15;;;2.90;;
20637;SDS011;10478;49.004;8.470;2023-04-25T15:11:26;9.05;;;5.03;;
20637;SDS011;10478;49.004;8.470;2023-04-25T15:13:51;6.28;;;3.85;;